sensor_id;sensor_type;location;lat;lon;timestamp;pressure;altitude;pressure_sealevel;temperature;humidity
47913;BME280;33676;51.006;17.180;2022-08-11T00:01:26;101036.23;;;16.81;73.70
47913;BME280;33676;51.006;17.180;2022-08-11T00:04:03;101037.04;;;16.78;73.81
47913;BME280;33676;51.006;17.180;2022-08-11T00:06:37;101036.56;;;16.77;73.70
47913;BME280;33676;51.006;17.180;2022-08-11T00:09:19;101030.75;;;16.75;73.63
47913;BME280;33676;51.006;17.180;2022-08-11T00:11:53;101036.94;;;16.74;73.75
47913;BME280;33676;51.006;17.180;2022-08-11T00:14:30;101035.38;;;16.71;73.84
47913;BME280;33676;51.006;17.180;2022-08-11T00:17:12;101031.75;;;16.70;73.87
47913;BME280;33676;51.006;17.180;2022-08-11T00:19:45;101031.90;;;16.69;73.85
47913;BME280;33676;51.006;17.180;2022-08-11T00:22:38;101031.11;;;16.66;74.05
47913;BME280;33676;51.006;17.180;2022-08-11T00:25:16;101031.31;;;16.62;74.13
47913;BME280;33676;51.006;17.180;2022-08-11T00:27:47;101031.02;;;16.57;74.13
47913;BME280;33676;51.006;17.180;2022-08-11T00:30:16;101030.77;;;16.52;74.24
47913;BME280;33676;51.006;17.180;2022-08-11T00:32:54;101034.39;;;16.47;74.40
47913;BME280;33676;51.006;17.180;2022-08-11T00:35:26;101033.50;;;16.42;74.58
47913;BME280;33676;51.006;17.180;2022-08-11T00:38:22;101034.07;;;16.35;74.71
47913;BME280;33676;51.006;17.180;2022-08-11T00:50:26;101026.96;;;16.14;75.00
47913;BME280;33676;51.006;17.180;2022-08-11T00:56:29;101029.88;;;15.96;75.35
47913;BME280;33676;51.006;17.180;2022-08-11T01:28:56;101039.33;;;15.19;77.42
47913;BME280;33676;51.006;17.180;2022-08-11T01:38:25;101031.77;;;14.97;77.98
47913;BME280;33676;51.006;17.180;2022-08-11T01:41:35;101034.95;;;14.90;78.27
47913;BME280;33676;51.006;17.180;2022-08-11T01:47:46;101033.70;;;14.76;78.52
47913;BME280;33676;51.006;17.180;2022-08-11T01:53:37;101034.30;;;14.65;78.75
47913;BME280;33676;51.006;17.180;2022-08-11T01:56:41;101033.05;;;14.58;78.83
47913;BME280;33676;51.006;17.180;2022-08-11T01:59:28;101029.67;;;14.52;78.99
47913;BME280;33676;51.006;17.180;2022-08-11T02:05:36;101028.88;;;14.41;79.50
47913;BME280;33676;51.006;17.180;2022-08-11T02:08:14;101033.88;;;14.35;79.56
47913;BME280;33676;51.006;17.180;2022-08-11T02:11:21;101035.36;;;14.28;79.72
47913;BME280;33676;51.006;17.180;2022-08-11T02:19:56;101022.82;;;14.09;80.39
47913;BME280;33676;51.006;17.180;2022-08-11T02:23:02;101023.38;;;14.04;80.64
47913;BME280;33676;51.006;17.180;2022-08-11T02:26:23;101020.23;;;14.00;80.85
47913;BME280;33676;51.006;17.180;2022-08-11T02:32:23;101024.65;;;13.93;81.34
47913;BME280;33676;51.006;17.180;2022-08-11T02:35:24;101027.48;;;13.89;81.49
47913;BME280;33676;51.006;17.180;2022-08-11T02:38:11;101027.77;;;13.85;81.58
47913;BME280;33676;51.006;17.180;2022-08-11T02:44:43;101032.98;;;13.81;81.75
47913;BME280;33676;51.006;17.180;2022-08-11T02:47:42;101035.48;;;13.79;82.03
47913;BME280;33676;51.006;17.180;2022-08-11T02:51:17;101036.82;;;13.75;81.94
47913;BME280;33676;51.006;17.180;2022-08-11T02:54:22;101028.43;;;13.70;81.90
47913;BME280;33676;51.006;17.180;2022-08-11T02:57:28;101030.19;;;13.66;81.95
47913;BME280;33676;51.006;17.180;2022-08-11T03:00:09;101028.89;;;13.62;81.97
47913;BME280;33676;51.006;17.180;2022-08-11T03:08:44;101034.31;;;13.43;82.03
47913;BME280;33676;51.006;17.180;2022-08-11T03:12:01;101034.45;;;13.39;82.34
47913;BME280;33676;51.006;17.180;2022-08-11T03:15:02;101043.30;;;13.36;82.64
47913;BME280;33676;51.006;17.180;2022-08-11T03:24:02;101049.27;;;13.24;83.16
47913;BME280;33676;51.006;17.180;2022-08-11T03:30:02;101046.85;;;13.16;84.02
47913;BME280;33676;51.006;17.180;2022-08-11T03:32:57;101047.44;;;13.13;84.05
47913;BME280;33676;51.006;17.180;2022-08-11T03:39:09;101043.70;;;13.07;83.96
47913;BME280;33676;51.006;17.180;2022-08-11T04:02:49;101033.39;;;12.98;84.51
47913;BME280;33676;51.006;17.180;2022-08-11T04:11:57;101037.80;;;12.85;84.07
47913;BME280;33676;51.006;17.180;2022-08-11T04:18:27;101036.83;;;12.85;84.60
47913;BME280;33676;51.006;17.180;2022-08-11T04:21:50;101038.36;;;12.87;85.25
47913;BME280;33676;51.006;17.180;2022-08-11T04:24:52;101035.29;;;12.91;85.62
47913;BME280;33676;51.006;17.180;2022-08-11T04:33:11;101038.16;;;13.06;86.34
47913;BME280;33676;51.006;17.180;2022-08-11T04:36:46;101036.44;;;13.12;86.56
47913;BME280;33676;51.006;17.180;2022-08-11T04:49:34;101042.81;;;13.53;87.58
47913;BME280;33676;51.006;17.180;2022-08-11T04:56:24;101049.06;;;13.78;87.75
47913;BME280;33676;51.006;17.180;2022-08-11T04:59:42;101043.70;;;13.92;87.75
47913;BME280;33676;51.006;17.180;2022-08-11T05:06:06;101040.80;;;14.21;87.97
47913;BME280;33676;51.006;17.180;2022-08-11T05:09:07;101039.66;;;14.36;88.11
47913;BME280;33676;51.006;17.180;2022-08-11T05:17:08;101040.80;;;14.75;87.62
47913;BME280;33676;51.006;17.180;2022-08-11T05:19:56;101036.27;;;14.89;87.68
47913;BME280;33676;51.006;17.180;2022-08-11T05:22:50;101043.16;;;15.04;87.58
47913;BME280;33676;51.006;17.180;2022-08-11T05:25:43;101044.70;;;15.18;87.27
47913;BME280;33676;51.006;17.180;2022-08-11T05:28:55;101047.34;;;15.33;86.87
47913;BME280;33676;51.006;17.180;2022-08-11T05:31:57;101053.83;;;15.48;86.60
47913;BME280;33676;51.006;17.180;2022-08-11T05:34:51;101057.09;;;15.61;86.14
47913;BME280;33676;51.006;17.180;2022-08-11T05:37:36;101062.04;;;15.73;86.00
47913;BME280;33676;51.006;17.180;2022-08-11T05:40:12;101062.23;;;15.84;85.58
47913;BME280;33676;51.006;17.180;2022-08-11T05:43:10;101062.85;;;15.98;85.16
47913;BME280;33676;51.006;17.180;2022-08-11T05:46:04;101058.20;;;16.10;84.74
47913;BME280;33676;51.006;17.180;2022-08-11T05:48:53;101058.73;;;16.22;84.66
47913;BME280;33676;51.006;17.180;2022-08-11T05:51:43;101063.73;;;16.33;84.19
47913;BME280;33676;51.006;17.180;2022-08-11T05:54:40;101065.18;;;16.44;83.76
47913;BME280;33676;51.006;17.180;2022-08-11T05:57:36;101066.98;;;16.56;83.41
47913;BME280;33676;51.006;17.180;2022-08-11T06:00:19;101069.86;;;16.67;83.32
47913;BME280;33676;51.006;17.180;2022-08-11T06:02:56;101075.19;;;16.78;83.25
47913;BME280;33676;51.006;17.180;2022-08-11T06:05:36;101077.23;;;16.89;82.95
47913;BME280;33676;51.006;17.180;2022-08-11T06:08:12;101079.11;;;16.99;82.70
47913;BME280;33676;51.006;17.180;2022-08-11T06:10:44;101081.70;;;17.09;82.46
47913;BME280;33676;51.006;17.180;2022-08-11T06:13:15;101082.98;;;17.20;82.36
47913;BME280;33676;51.006;17.180;2022-08-11T06:15:50;101083.56;;;17.31;82.31
47913;BME280;33676;51.006;17.180;2022-08-11T06:18:20;101085.15;;;17.42;82.08
47913;BME280;33676;51.006;17.180;2022-08-11T06:20:53;101088.45;;;17.52;82.05
47913;BME280;33676;51.006;17.180;2022-08-11T06:23:31;101086.02;;;17.63;82.03
47913;BME280;33676;51.006;17.180;2022-08-11T06:26:11;101088.71;;;17.73;81.88
47913;BME280;33676;51.006;17.180;2022-08-11T06:28:42;101086.48;;;17.83;81.77
47913;BME280;33676;51.006;17.180;2022-08-11T06:31:20;101083.10;;;17.93;81.67
47913;BME280;33676;51.006;17.180;2022-08-11T06:39:51;101082.52;;;18.28;81.01
47913;BME280;33676;51.006;17.180;2022-08-11T06:45:36;101078.98;;;18.53;80.61
47913;BME280;33676;51.006;17.180;2022-08-11T06:48:16;101079.25;;;18.67;80.75
47913;BME280;33676;51.006;17.180;2022-08-11T06:50:54;101080.88;;;18.78;80.47
47913;BME280;33676;51.006;17.180;2022-08-11T06:53:43;101077.87;;;18.91;80.07
47913;BME280;33676;51.006;17.180;2022-08-11T06:56:36;101076.23;;;19.02;79.77
47913;BME280;33676;51.006;17.180;2022-08-11T06:59:46;101073.48;;;19.15;79.53
47913;BME280;33676;51.006;17.180;2022-08-11T07:03:10;101067.19;;;19.28;79.49
47913;BME280;33676;51.006;17.180;2022-08-11T07:05:46;101069.30;;;19.42;79.06
47913;BME280;33676;51.006;17.180;2022-08-11T07:11:54;101063.42;;;19.65;78.67
47913;BME280;33676;51.006;17.180;2022-08-11T07:14:54;101064.09;;;19.78;78.64
47913;BME280;33676;51.006;17.180;2022-08-11T07:17:51;101069.98;;;19.92;78.36
47913;BME280;33676;51.006;17.180;2022-08-11T07:20:40;101066.12;;;20.03;77.98
47913;BME280;33676;51.006;17.180;2022-08-11T07:23:33;101063.30;;;20.15;77.87
47913;BME280;33676;51.006;17.180;2022-08-11T07:26:25;101059.29;;;20.29;77.75
47913;BME280;33676;51.006;17.180;2022-08-11T07:29:13;101056.25;;;20.44;77.88
47913;BME280;33676;51.006;17.180;2022-08-11T07:31:49;101051.17;;;20.58;77.82
47913;BME280;33676;51.006;17.180;2022-08-11T07:34:36;101053.42;;;20.73;77.66
47913;BME280;33676;51.006;17.180;2022-08-11T07:37:14;101055.05;;;20.89;77.55
47913;BME280;33676;51.006;17.180;2022-08-11T07:39:47;101054.88;;;21.08;77.37
47913;BME280;33676;51.006;17.180;2022-08-11T07:42:30;101057.71;;;21.49;77.27
47913;BME280;33676;51.006;17.180;2022-08-11T07:45:07;101053.35;;;21.90;77.12
47913;BME280;33676;51.006;17.180;2022-08-11T07:47:55;101055.90;;;22.26;76.43
47913;BME280;33676;51.006;17.180;2022-08-11T07:50:43;101053.61;;;22.48;75.48
47913;BME280;33676;51.006;17.180;2022-08-11T07:53:32;101055.32;;;22.67;74.77
47913;BME280;33676;51.006;17.180;2022-08-11T07:56:21;101054.61;;;22.87;74.11
47913;BME280;33676;51.006;17.180;2022-08-11T07:59:11;101054.05;;;23.05;73.29
47913;BME280;33676;51.006;17.180;2022-08-11T08:02:19;101055.02;;;23.23;72.65
47913;BME280;33676;51.006;17.180;2022-08-11T08:05:07;101053.73;;;23.30;72.01
47913;BME280;33676;51.006;17.180;2022-08-11T08:07:55;101051.30;;;23.38;72.12
47913;BME280;33676;51.006;17.180;2022-08-11T08:10:44;101053.33;;;23.47;71.60
47913;BME280;33676;51.006;17.180;2022-08-11T08:13:33;101051.95;;;23.55;71.50
47913;BME280;33676;51.006;17.180;2022-08-11T08:16:21;101047.41;;;23.63;71.07
47913;BME280;33676;51.006;17.180;2022-08-11T08:19:14;101045.34;;;23.71;70.86
47913;BME280;33676;51.006;17.180;2022-08-11T08:21:44;101042.18;;;23.78;70.65
47913;BME280;33676;51.006;17.180;2022-08-11T08:24:14;101038.70;;;23.87;70.39
47913;BME280;33676;51.006;17.180;2022-08-11T08:26:43;101035.56;;;23.94;70.19
47913;BME280;33676;51.006;17.180;2022-08-11T08:29:33;101030.16;;;24.05;70.06
47913;BME280;33676;51.006;17.180;2022-08-11T08:32:21;101025.64;;;24.17;69.97
47913;BME280;33676;51.006;17.180;2022-08-11T08:34:52;101028.18;;;24.24;67.97
47913;BME280;33676;51.006;17.180;2022-08-11T08:37:25;101023.44;;;24.23;67.34
47913;BME280;33676;51.006;17.180;2022-08-11T08:40:14;101023.55;;;24.37;68.01
47913;BME280;33676;51.006;17.180;2022-08-11T08:42:57;101021.83;;;24.60;67.78
47913;BME280;33676;51.006;17.180;2022-08-11T08:45:26;101023.90;;;24.86;67.21
47913;BME280;33676;51.006;17.180;2022-08-11T08:48:02;101023.10;;;25.09;67.09
47913;BME280;33676;51.006;17.180;2022-08-11T08:50:36;101022.62;;;25.30;66.15
47913;BME280;33676;51.006;17.180;2022-08-11T08:53:27;101017.87;;;25.47;65.73
47913;BME280;33676;51.006;17.180;2022-08-11T08:56:01;101013.35;;;25.54;65.44
47913;BME280;33676;51.006;17.180;2022-08-11T08:58:33;101008.42;;;25.64;65.22
47913;BME280;33676;51.006;17.180;2022-08-11T09:01:02;101006.09;;;25.77;64.89
47913;BME280;33676;51.006;17.180;2022-08-11T09:03:36;101004.78;;;25.92;64.70
47913;BME280;33676;51.006;17.180;2022-08-11T09:06:29;100999.15;;;26.13;64.38
47913;BME280;33676;51.006;17.180;2022-08-11T09:08:58;101004.14;;;26.35;64.45
47913;BME280;33676;51.006;17.180;2022-08-11T09:11:38;101004.89;;;26.54;64.06
47913;BME280;33676;51.006;17.180;2022-08-11T09:14:33;101004.23;;;26.68;63.07
47913;BME280;33676;51.006;17.180;2022-08-11T09:17:22;101004.11;;;26.78;62.35
47913;BME280;33676;51.006;17.180;2022-08-11T09:20:02;101007.84;;;26.88;62.01
47913;BME280;33676;51.006;17.180;2022-08-11T09:22:40;101012.15;;;27.00;61.65
47913;BME280;33676;51.006;17.180;2022-08-11T09:25:56;101007.69;;;27.13;60.66
47913;BME280;33676;51.006;17.180;2022-08-11T09:28:46;101008.56;;;27.08;59.18
47913;BME280;33676;51.006;17.180;2022-08-11T09:31:19;101009.02;;;27.11;59.55
47913;BME280;33676;51.006;17.180;2022-08-11T09:33:53;101007.71;;;27.22;59.68
47913;BME280;33676;51.006;17.180;2022-08-11T09:36:23;101005.89;;;27.39;59.25
47913;BME280;33676;51.006;17.180;2022-08-11T09:39:11;101003.09;;;27.55;58.80
47913;BME280;33676;51.006;17.180;2022-08-11T09:42:01;101007.36;;;27.71;58.57
47913;BME280;33676;51.006;17.180;2022-08-11T09:44:34;101007.99;;;27.80;57.94
47913;BME280;33676;51.006;17.180;2022-08-11T09:47:32;101004.20;;;27.82;57.83
47913;BME280;33676;51.006;17.180;2022-08-11T09:50:03;101005.05;;;28.02;58.40
47913;BME280;33676;51.006;17.180;2022-08-11T09:52:37;100997.91;;;28.31;58.35
47913;BME280;33676;51.006;17.180;2022-08-11T09:55:25;100999.88;;;28.66;58.30
47913;BME280;33676;51.006;17.180;2022-08-11T09:57:57;100996.46;;;28.88;57.84
47913;BME280;33676;51.006;17.180;2022-08-11T10:01:01;100993.98;;;29.15;57.30
47913;BME280;33676;51.006;17.180;2022-08-11T10:03:34;100991.05;;;29.31;56.99
47913;BME280;33676;51.006;17.180;2022-08-11T10:06:08;100987.28;;;29.40;56.49
47913;BME280;33676;51.006;17.180;2022-08-11T10:09:05;100985.31;;;29.46;55.94
47913;BME280;33676;51.006;17.180;2022-08-11T10:11:35;100979.81;;;29.46;55.52
47913;BME280;33676;51.006;17.180;2022-08-11T10:14:06;100977.51;;;29.45;54.94
47913;BME280;33676;51.006;17.180;2022-08-11T10:17:05;100973.67;;;29.41;54.29
47913;BME280;33676;51.006;17.180;2022-08-11T10:19:36;100968.97;;;29.08;52.52
47913;BME280;33676;51.006;17.180;2022-08-11T10:22:06;100970.02;;;28.57;52.87
47913;BME280;33676;51.006;17.180;2022-08-11T10:24:55;100964.06;;;28.22;52.99
47913;BME280;33676;51.006;17.180;2022-08-11T10:27:48;100957.88;;;28.42;53.57
47913;BME280;33676;51.006;17.180;2022-08-11T10:30:46;100953.23;;;28.76;53.55
47913;BME280;33676;51.006;17.180;2022-08-11T10:33:43;100953.16;;;28.91;52.95
47913;BME280;33676;51.006;17.180;2022-08-11T10:39:19;100949.94;;;29.79;53.48
47913;BME280;33676;51.006;17.180;2022-08-11T10:41:49;100948.52;;;30.30;53.41
47913;BME280;33676;51.006;17.180;2022-08-11T10:44:56;100949.14;;;30.82;53.30
47913;BME280;33676;51.006;17.180;2022-08-11T10:47:25;100947.96;;;31.28;52.98
47913;BME280;33676;51.006;17.180;2022-08-11T10:50:16;100946.39;;;31.52;52.17
47913;BME280;33676;51.006;17.180;2022-08-11T10:53:11;100939.34;;;31.52;51.64
47913;BME280;33676;51.006;17.180;2022-08-11T10:56:02;100941.58;;;31.47;51.17
47913;BME280;33676;51.006;17.180;2022-08-11T10:58:52;100941.27;;;31.23;50.60
47913;BME280;33676;51.006;17.180;2022-08-11T11:01:33;100941.05;;;30.99;50.32
47913;BME280;33676;51.006;17.180;2022-08-11T11:04:12;100928.65;;;31.12;50.50
47913;BME280;33676;51.006;17.180;2022-08-11T11:07:20;100927.02;;;31.48;50.44
47913;BME280;33676;51.006;17.180;2022-08-11T11:09:56;100926.36;;;31.56;48.76
47913;BME280;33676;51.006;17.180;2022-08-11T11:12:43;100928.65;;;31.62;49.07
47913;BME280;33676;51.006;17.180;2022-08-11T11:15:34;100928.34;;;31.57;48.76
47913;BME280;33676;51.006;17.180;2022-08-11T11:18:30;100930.39;;;31.15;48.34
47913;BME280;33676;51.006;17.180;2022-08-11T11:21:14;100930.42;;;30.79;48.21
47913;BME280;33676;51.006;17.180;2022-08-11T11:24:02;100927.74;;;30.76;48.85
47913;BME280;33676;51.006;17.180;2022-08-11T11:27:09;100918.27;;;31.23;49.04
47913;BME280;33676;51.006;17.180;2022-08-11T11:30:05;100917.05;;;31.77;48.95
47913;BME280;33676;51.006;17.180;2022-08-11T11:35:12;100914.44;;;32.96;49.56
47913;BME280;33676;51.006;17.180;2022-08-11T11:37:49;100912.56;;;33.57;49.27
47913;BME280;33676;51.006;17.180;2022-08-11T11:40:33;100911.39;;;34.22;49.38
47913;BME280;33676;51.006;17.180;2022-08-11T11:43:04;100903.64;;;34.76;48.90
47913;BME280;33676;51.006;17.180;2022-08-11T11:45:34;100902.45;;;34.98;48.25
47913;BME280;33676;51.006;17.180;2022-08-11T11:48:04;100901.26;;;35.12;47.55
47913;BME280;33676;51.006;17.180;2022-08-11T11:50:36;100894.55;;;35.34;46.77
47913;BME280;33676;51.006;17.180;2022-08-11T11:53:08;100893.40;;;35.44;46.76
47913;BME280;33676;51.006;17.180;2022-08-11T11:55:38;100892.16;;;35.16;45.22
47913;BME280;33676;51.006;17.180;2022-08-11T11:58:08;100890.67;;;34.00;44.04
47913;BME280;33676;51.006;17.180;2022-08-11T12:00:57;100880.20;;;33.51;44.85
47913;BME280;33676;51.006;17.180;2022-08-11T12:03:50;100879.31;;;33.30;45.06
47913;BME280;33676;51.006;17.180;2022-08-11T12:06:23;100881.02;;;32.91;44.40
47913;BME280;33676;51.006;17.180;2022-08-11T12:08:57;100876.75;;;32.65;44.97
47913;BME280;33676;51.006;17.180;2022-08-11T12:11:28;100870.95;;;32.70;45.10
47913;BME280;33676;51.006;17.180;2022-08-11T12:14:18;100869.96;;;32.93;45.27
47913;BME280;33676;51.006;17.180;2022-08-11T12:16:48;100867.90;;;33.25;45.61
47913;BME280;33676;51.006;17.180;2022-08-11T12:19:22;100866.98;;;33.85;46.19
47913;BME280;33676;51.006;17.180;2022-08-11T12:21:56;100864.85;;;34.57;46.12
47913;BME280;33676;51.006;17.180;2022-08-11T12:24:44;100861.30;;;35.39;46.29
47913;BME280;33676;51.006;17.180;2022-08-11T12:27:32;100862.91;;;36.11;45.97
47913;BME280;33676;51.006;17.180;2022-08-11T12:30:06;100857.52;;;36.61;45.42
47913;BME280;33676;51.006;17.180;2022-08-11T12:32:39;100855.02;;;37.12;45.24
47913;BME280;33676;51.006;17.180;2022-08-11T12:35:14;100857.20;;;37.66;45.24
47913;BME280;33676;51.006;17.180;2022-08-11T12:37:53;100853.48;;;38.17;44.84
47913;BME280;33676;51.006;17.180;2022-08-11T12:40:41;100839.39;;;38.87;44.69
47913;BME280;33676;51.006;17.180;2022-08-11T12:43:46;100850.10;;;38.76;42.05
47913;BME280;33676;51.006;17.180;2022-08-11T12:46:36;100839.85;;;37.72;41.23
47913;BME280;33676;51.006;17.180;2022-08-11T12:49:12;100836.15;;;36.75;41.61
47913;BME280;33676;51.006;17.180;2022-08-11T12:52:08;100840.35;;;35.70;41.60
47913;BME280;33676;51.006;17.180;2022-08-11T12:54:54;100837.39;;;34.80;42.22
47913;BME280;33676;51.006;17.180;2022-08-11T12:57:30;100839.13;;;34.29;42.84
47913;BME280;33676;51.006;17.180;2022-08-11T13:00:27;100839.11;;;34.18;43.40
47913;BME280;33676;51.006;17.180;2022-08-11T13:03:19;100831.27;;;34.77;43.69
47913;BME280;33676;51.006;17.180;2022-08-11T13:06:07;100821.36;;;35.67;44.33
47913;BME280;33676;51.006;17.180;2022-08-11T13:08:38;100822.77;;;36.54;44.32
47913;BME280;33676;51.006;17.180;2022-08-11T13:11:09;100823.21;;;37.25;44.13
47913;BME280;33676;51.006;17.180;2022-08-11T13:14:18;100819.96;;;38.22;43.82
47913;BME280;33676;51.006;17.180;2022-08-11T13:16:47;100815.80;;;38.92;43.57
47913;BME280;33676;51.006;17.180;2022-08-11T13:19:36;100813.32;;;39.49;42.13
47913;BME280;33676;51.006;17.180;2022-08-11T13:22:05;100818.00;;;38.72;40.62
47913;BME280;33676;51.006;17.180;2022-08-11T13:24:35;100814.89;;;37.91;40.64
47913;BME280;33676;51.006;17.180;2022-08-11T13:27:04;100814.34;;;37.27;40.20
47913;BME280;33676;51.006;17.180;2022-08-11T13:29:35;100807.46;;;36.74;40.31
47913;BME280;33676;51.006;17.180;2022-08-11T13:32:04;100804.52;;;36.42;40.47
47913;BME280;33676;51.006;17.180;2022-08-11T13:34:34;100802.09;;;36.63;41.55
47913;BME280;33676;51.006;17.180;2022-08-11T13:37:12;100793.94;;;37.49;42.37
47913;BME280;33676;51.006;17.180;2022-08-11T13:39:43;100791.83;;;38.56;42.61
47913;BME280;33676;51.006;17.180;2022-08-11T13:42:18;100790.09;;;39.62;42.55
47913;BME280;33676;51.006;17.180;2022-08-11T13:44:48;100792.83;;;40.69;42.83
47913;BME280;33676;51.006;17.180;2022-08-11T13:47:18;100789.48;;;41.32;41.99
47913;BME280;33676;51.006;17.180;2022-08-11T13:49:51;100793.58;;;41.08;40.97
47913;BME280;33676;51.006;17.180;2022-08-11T13:52:20;100789.02;;;40.39;40.32
47913;BME280;33676;51.006;17.180;2022-08-11T13:54:50;100788.14;;;39.61;39.73
47913;BME280;33676;51.006;17.180;2022-08-11T13:57:21;100789.88;;;38.32;38.70
47913;BME280;33676;51.006;17.180;2022-08-11T14:00:10;100782.52;;;36.23;38.98
47913;BME280;33676;51.006;17.180;2022-08-11T14:02:52;100777.81;;;34.80;39.78
47913;BME280;33676;51.006;17.180;2022-08-11T14:05:28;100773.86;;;33.97;40.28
47913;BME280;33676;51.006;17.180;2022-08-11T14:08:02;100772.95;;;33.78;41.45
47913;BME280;33676;51.006;17.180;2022-08-11T14:10:33;100769.27;;;34.20;41.94
47913;BME280;33676;51.006;17.180;2022-08-11T14:13:13;100759.48;;;34.68;41.78
47913;BME280;33676;51.006;17.180;2022-08-11T14:16:23;100757.23;;;35.56;42.51
47913;BME280;33676;51.006;17.180;2022-08-11T14:19:02;100753.95;;;36.61;42.25
47913;BME280;33676;51.006;17.180;2022-08-11T14:21:36;100754.81;;;37.55;42.06
47913;BME280;33676;51.006;17.180;2022-08-11T14:24:42;100750.43;;;38.74;42.04
47913;BME280;33676;51.006;17.180;2022-08-11T14:27:17;100745.08;;;39.74;41.69
47913;BME280;33676;51.006;17.180;2022-08-11T14:30:13;100745.55;;;40.70;41.38
47913;BME280;33676;51.006;17.180;2022-08-11T14:33:02;100747.02;;;41.57;40.90
47913;BME280;33676;51.006;17.180;2022-08-11T14:35:44;100746.18;;;42.34;40.57
47913;BME280;33676;51.006;17.180;2022-08-11T14:38:17;100749.54;;;42.76;38.97
47913;BME280;33676;51.006;17.180;2022-08-11T14:40:47;100741.30;;;41.97;37.55
47913;BME280;33676;51.006;17.180;2022-08-11T14:43:36;100744.41;;;41.01;37.38
47913;BME280;33676;51.006;17.180;2022-08-11T14:47:22;100743.71;;;40.36;37.19
47913;BME280;33676;51.006;17.180;2022-08-11T14:50:36;100742.52;;;40.17;38.61
47913;BME280;33676;51.006;17.180;2022-08-11T14:53:30;100744.00;;;40.33;38.63
47913;BME280;33676;51.006;17.180;2022-08-11T14:56:25;100743.58;;;41.21;38.69
47913;BME280;33676;51.006;17.180;2022-08-11T14:59:05;100741.85;;;42.04;39.04
47913;BME280;33676;51.006;17.180;2022-08-11T15:01:34;100744.44;;;42.91;38.91
47913;BME280;33676;51.006;17.180;2022-08-11T15:04:26;100747.34;;;43.87;38.86
47913;BME280;33676;51.006;17.180;2022-08-11T15:07:04;100747.08;;;44.66;39.00
47913;BME280;33676;51.006;17.180;2022-08-11T15:09:44;100743.27;;;45.43;38.64
47913;BME280;33676;51.006;17.180;2022-08-11T15:12:36;100741.39;;;46.07;38.46
47913;BME280;33676;51.006;17.180;2022-08-11T15:15:06;100742.52;;;46.71;38.18
47913;BME280;33676;51.006;17.180;2022-08-11T15:17:58;100736.04;;;47.48;38.26
47913;BME280;33676;51.006;17.180;2022-08-11T15:20:28;100739.85;;;47.97;38.06
47913;BME280;33676;51.006;17.180;2022-08-11T15:23:21;100741.13;;;47.66;37.75
47913;BME280;33676;51.006;17.180;2022-08-11T15:26:12;100741.50;;;47.74;37.66
47913;BME280;33676;51.006;17.180;2022-08-11T15:28:48;100735.17;;;48.17;37.42
47913;BME280;33676;51.006;17.180;2022-08-11T15:31:37;100731.89;;;48.74;37.31
47913;BME280;33676;51.006;17.180;2022-08-11T15:34:19;100730.95;;;49.25;37.00
47913;BME280;33676;51.006;17.180;2022-08-11T15:37:14;100727.43;;;49.43;36.80
47913;BME280;33676;51.006;17.180;2022-08-11T15:43:26;100728.88;;;50.61;37.21
47913;BME280;33676;51.006;17.180;2022-08-11T15:49:30;100738.07;;;51.49;36.80
47913;BME280;33676;51.006;17.180;2022-08-11T15:52:29;100736.52;;;51.81;36.34
47913;BME280;33676;51.006;17.180;2022-08-11T15:54:59;100731.88;;;52.04;36.27
47913;BME280;33676;51.006;17.180;2022-08-11T15:57:37;100734.49;;;51.90;35.98
47913;BME280;33676;51.006;17.180;2022-08-11T16:00:25;100733.22;;;50.21;35.68
47913;BME280;33676;51.006;17.180;2022-08-11T16:03:14;100729.67;;;49.02;35.21
47913;BME280;33676;51.006;17.180;2022-08-11T16:06:24;100727.04;;;49.43;35.36
47913;BME280;33676;51.006;17.180;2022-08-11T16:08:56;100725.77;;;49.90;35.50
47913;BME280;33676;51.006;17.180;2022-08-11T16:11:27;100732.01;;;50.39;35.82
47913;BME280;33676;51.006;17.180;2022-08-11T16:13:56;100735.36;;;50.90;35.76
47913;BME280;33676;51.006;17.180;2022-08-11T16:16:46;100731.98;;;51.30;35.44
47913;BME280;33676;51.006;17.180;2022-08-11T16:19:17;100728.98;;;51.59;35.79
47913;BME280;33676;51.006;17.180;2022-08-11T16:21:50;100731.25;;;51.92;35.76
47913;BME280;33676;51.006;17.180;2022-08-11T16:24:21;100731.55;;;52.26;35.46
47913;BME280;33676;51.006;17.180;2022-08-11T16:27:12;100731.13;;;52.54;35.58
47913;BME280;33676;51.006;17.180;2022-08-11T16:29:46;100734.59;;;52.72;35.38
47913;BME280;33676;51.006;17.180;2022-08-11T16:32:20;100732.02;;;52.94;35.33
47913;BME280;33676;51.006;17.180;2022-08-11T16:35:00;100729.41;;;53.06;35.23
47913;BME280;33676;51.006;17.180;2022-08-11T16:37:51;100732.21;;;53.13;35.23
47913;BME280;33676;51.006;17.180;2022-08-11T16:40:40;100732.38;;;53.16;35.13
47913;BME280;33676;51.006;17.180;2022-08-11T16:43:14;100730.38;;;53.19;34.94
47913;BME280;33676;51.006;17.180;2022-08-11T16:46:04;100733.63;;;53.29;34.89
47913;BME280;33676;51.006;17.180;2022-08-11T16:48:54;100736.79;;;53.21;34.84
47913;BME280;33676;51.006;17.180;2022-08-11T16:51:24;100733.98;;;52.38;34.64
47913;BME280;33676;51.006;17.180;2022-08-11T16:53:52;100744.61;;;51.57;34.21
47913;BME280;33676;51.006;17.180;2022-08-11T16:56:43;100749.80;;;50.37;34.33
47913;BME280;33676;51.006;17.180;2022-08-11T16:59:35;100750.88;;;48.03;34.09
47913;BME280;33676;51.006;17.180;2022-08-11T17:02:15;100757.31;;;46.41;34.62
47913;BME280;33676;51.006;17.180;2022-08-11T17:05:10;100754.00;;;46.36;35.06